テヘラン の空港の天気 - METARとTAF

メヘラーバード国際空港(テヘラン) ( OIII / THR ) - イラン テヘラン
飛行場実況気象(Metar)
観測時間08/05 02:30 IRDT (08/04 22:00 UTC)
風向・風速西 3m/s
視程10km以上
天気現象
少しの雲 雲底高度 1070m
気温24℃
湿度44%
気圧1008hPa
METAROIII 042200Z 28006KT 9999 FEW035 24/11 Q1008 A2977 NOSIG
過去の天気等 Google飛行場航空写真 Wunderground天気予報

過去48時間のMETAR

飛行場予報(TAF)
発表時間: 8/04 22:20 IRDT (8/04 17:50 UTC)
予報対象時間: 4日22時 IRDT ~ 6日4時 IRDT
風向・風速東南東 4m/s
視程8000m
少しの雲 雲底高度 1220m
4日22時 IRDT ~ 5日2時 IRDT に一時的に
風向・風速南東 6m/s
少しの積乱雲 雲底高度 1070m
全天の4割程度の雲 雲底高度 3050m
5日13時 IRDT ~ 5日19時 IRDT に一時的に
風向・風速南南東 9m/s
少しの積乱雲 雲底高度 1070m
全天の4割程度の雲 雲底高度 3050m
TAF OIII 041750Z 0418/0524 12008KT 8000 FEW040
TEMPO 0418/0422 14012KT FEW035CB SCT100
TEMPO 0509/0515 16018KT FEW035CB SCT100